Terminal Aerodrome Forecast
Issued by NWS

Home | Current Version | Previous Version | Text Only | Print | Product List | Glossary On
Versions: 1 2 3 4 5 6 7 8 9 10 11 12 13 14 15 16 17 18 19 20 21 22 23
000
FTUS45 KREV 290500
TAFTRK
TAF
KTRK 290533Z 2906/3006 VRB03KT P6SM BKN120 OVC180
     FM292100 29011G18KT P6SM VCSH BKN060 BKN120
     FM300300 VRB03KT P6SM SCT120
      AMD NOT SKED 2906/2912=

USA.gov is the U.S. government's official web portal to all federal, state and local government web resources and services.